BIENTÔT MET'MAP
version 2.0 !

Prévue avant fin octobre,
la nouvelle version sera
plus belle, plus complète
et hébergée sur un serveur
3 fois plus puissant...
et toujours gratuite !


Pas compatible ?
Essayez la version Mobile !

SE CONNECTER : | S'inscrire | Disclaimer | Découvrir Orbifly |
Code OACI :
Lgende : VFR VFR Marginal IFR IFR Intensif IFR Trs Intensif
Visi :
Plafond :
>= 8 km
>= 3000ft
5 8 km
1000 3000 ft
1500m 5 km
500 1000 ft
800 1500m
200 500 ft
< 800m
< 200 ft

METAR - DTKA Tabarka 7 Novembre - 05 Apr 2020 13:19 UTC - Data Source NOAA   


- Altitude de l'aérodrome : 230 ft
- Code IATA : TBJ
- Pas de NOTAMs connus.


DTKA - Tabarka 7 Novembre

Dernier METAR connu : 2015/08/11 08:00 DTKA 110800Z 26011KT 9999 BKN020 FEW023CB 25/21 Q1014 NOSIG RMK CB.S
TAF TAF DTKA
Valide du 05 à 10h jusqu'au 05 à 19h UTC


050900Z 0510/0519 VRB03KT 9999 FEW020

Source NOAA


MET'MAP, la Météo Aéronautique d'un coup d'oeil ! - Copyright ORBIFLY Décembre 2007

Développement & Programmation : Alexandra Zaïnal
Co-Développement : Marc-Olivier Méhu
Soutien technique & logistique : Manuel Goepfert
Conception & Financement : Baudouin d'Aumeries